sensor_id;sensor_type;location;lat;lon;timestamp;P1;durP1;ratioP1;P2;durP2;ratioP2
17773;SDS011;9011;33.236;-97.118;2022-09-03T00:01:57;3.78;;;2.17;;
17773;SDS011;9011;33.236;-97.118;2022-09-03T00:04:36;2.28;;;1.90;;
17773;SDS011;9011;33.236;-97.118;2022-09-03T00:07:10;2.13;;;1.92;;
17773;SDS011;9011;33.236;-97.118;2022-09-03T00:09:47;5.20;;;2.35;;
17773;SDS011;9011;33.236;-97.118;2022-09-03T00:12:20;6.07;;;2.50;;
17773;SDS011;9011;33.236;-97.118;2022-09-03T00:14:52;4.25;;;2.17;;
17773;SDS011;9011;33.236;-97.118;2022-09-03T00:17:24;2.25;;;2.05;;
17773;SDS011;9011;33.236;-97.118;2022-09-03T00:19:57;4.07;;;2.20;;
17773;SDS011;9011;33.236;-97.118;2022-09-03T00:22:30;2.15;;;1.95;;
17773;SDS011;9011;33.236;-97.118;2022-09-03T00:25:03;3.03;;;1.75;;
17773;SDS011;9011;33.236;-97.118;2022-09-03T00:27:36;4.85;;;2.17;;
17773;SDS011;9011;33.236;-97.118;2022-09-03T00:30:08;2.67;;;2.30;;
17773;SDS011;9011;33.236;-97.118;2022-09-03T00:32:39;3.10;;;2.10;;
17773;SDS011;9011;33.236;-97.118;2022-09-03T00:35:13;3.83;;;2.20;;
17773;SDS011;9011;33.236;-97.118;2022-09-03T00:37:45;3.05;;;2.25;;
17773;SDS011;9011;33.236;-97.118;2022-09-03T00:40:18;5.60;;;2.60;;
17773;SDS011;9011;33.236;-97.118;2022-09-03T00:42:55;4.47;;;2.40;;
17773;SDS011;9011;33.236;-97.118;2022-09-03T00:45:31;3.60;;;2.47;;
17773;SDS011;9011;33.236;-97.118;2022-09-03T00:48:09;10.73;;;2.83;;
17773;SDS011;9011;33.236;-97.118;2022-09-03T00:50:45;5.30;;;2.67;;
17773;SDS011;9011;33.236;-97.118;2022-09-03T00:53:27;3.92;;;2.17;;
17773;SDS011;9011;33.236;-97.118;2022-09-03T00:56:03;3.45;;;2.17;;
17773;SDS011;9011;33.236;-97.118;2022-09-03T00:58:50;2.67;;;2.47;;
17773;SDS011;9011;33.236;-97.118;2022-09-03T01:01:33;2.78;;;2.20;;
17773;SDS011;9011;33.236;-97.118;2022-09-03T01:04:09;7.60;;;2.97;;
17773;SDS011;9011;33.236;-97.118;2022-09-03T01:06:48;10.90;;;2.70;;
17773;SDS011;9011;33.236;-97.118;2022-09-03T01:09:28;3.55;;;2.33;;
17773;SDS011;9011;33.236;-97.118;2022-09-03T01:12:07;9.85;;;2.70;;
17773;SDS011;9011;33.236;-97.118;2022-09-03T01:14:44;4.60;;;2.92;;
17773;SDS011;9011;33.236;-97.118;2022-09-03T01:17:25;9.93;;;6.45;;
17773;SDS011;9011;33.236;-97.118;2022-09-03T01:20:07;30.23;;;21.95;;
17773;SDS011;9011;33.236;-97.118;2022-09-03T01:25:51;5.75;;;5.15;;
17773;SDS011;9011;33.236;-97.118;2022-09-03T01:28:28;8.32;;;7.03;;
17773;SDS011;9011;33.236;-97.118;2022-09-03T01:31:11;5.50;;;3.17;;
17773;SDS011;9011;33.236;-97.118;2022-09-03T01:33:53;4.10;;;2.42;;
17773;SDS011;9011;33.236;-97.118;2022-09-03T01:36:30;2.95;;;2.38;;
17773;SDS011;9011;33.236;-97.118;2022-09-03T01:39:05;6.60;;;2.47;;
17773;SDS011;9011;33.236;-97.118;2022-09-03T01:41:39;2.58;;;2.35;;
17773;SDS011;9011;33.236;-97.118;2022-09-03T01:44:34;3.63;;;2.30;;
17773;SDS011;9011;33.236;-97.118;2022-09-03T01:47:15;2.63;;;2.15;;
17773;SDS011;9011;33.236;-97.118;2022-09-03T01:50:03;2.28;;;2.05;;
17773;SDS011;9011;33.236;-97.118;2022-09-03T01:52:39;2.50;;;2.05;;
17773;SDS011;9011;33.236;-97.118;2022-09-03T01:55:20;4.72;;;2.00;;
17773;SDS011;9011;33.236;-97.118;2022-09-03T01:57:57;5.38;;;2.08;;
17773;SDS011;9011;33.236;-97.118;2022-09-03T02:00:37;2.80;;;2.20;;
17773;SDS011;9011;33.236;-97.118;2022-09-03T02:03:14;2.72;;;2.50;;
17773;SDS011;9011;33.236;-97.118;2022-09-03T02:05:43;2.63;;;2.15;;
17773;SDS011;9011;33.236;-97.118;2022-09-03T02:08:16;2.40;;;2.20;;
17773;SDS011;9011;33.236;-97.118;2022-09-03T02:10:44;3.53;;;2.10;;
17773;SDS011;9011;33.236;-97.118;2022-09-03T02:13:15;4.90;;;2.42;;
17773;SDS011;9011;33.236;-97.118;2022-09-03T02:15:51;2.30;;;1.92;;
17773;SDS011;9011;33.236;-97.118;2022-09-03T02:18:24;2.13;;;2.00;;
17773;SDS011;9011;33.236;-97.118;2022-09-03T02:20:59;5.43;;;2.28;;
17773;SDS011;9011;33.236;-97.118;2022-09-03T02:23:29;4.00;;;2.25;;
17773;SDS011;9011;33.236;-97.118;2022-09-03T02:26:01;5.30;;;1.90;;
17773;SDS011;9011;33.236;-97.118;2022-09-03T02:28:30;3.58;;;2.35;;
17773;SDS011;9011;33.236;-97.118;2022-09-03T02:31:04;2.58;;;2.38;;
17773;SDS011;9011;33.236;-97.118;2022-09-03T02:33:34;3.17;;;2.10;;
17773;SDS011;9011;33.236;-97.118;2022-09-03T02:36:09;2.47;;;2.25;;
17773;SDS011;9011;33.236;-97.118;2022-09-03T02:38:47;3.03;;;2.10;;
17773;SDS011;9011;33.236;-97.118;2022-09-03T02:41:15;3.85;;;2.33;;
17773;SDS011;9011;33.236;-97.118;2022-09-03T02:43:44;2.30;;;2.00;;
17773;SDS011;9011;33.236;-97.118;2022-09-03T02:46:20;2.47;;;2.17;;
17773;SDS011;9011;33.236;-97.118;2022-09-03T02:48:51;4.95;;;2.55;;
17773;SDS011;9011;33.236;-97.118;2022-09-03T02:51:19;6.00;;;2.45;;
17773;SDS011;9011;33.236;-97.118;2022-09-03T02:53:48;3.50;;;2.28;;
17773;SDS011;9011;33.236;-97.118;2022-09-03T02:56:17;4.15;;;2.50;;
17773;SDS011;9011;33.236;-97.118;2022-09-03T02:58:47;2.70;;;2.15;;
17773;SDS011;9011;33.236;-97.118;2022-09-03T03:01:15;3.25;;;2.05;;
17773;SDS011;9011;33.236;-97.118;2022-09-03T03:03:50;4.38;;;2.13;;
17773;SDS011;9011;33.236;-97.118;2022-09-03T03:06:36;2.50;;;2.30;;
17773;SDS011;9011;33.236;-97.118;2022-09-03T03:09:11;4.65;;;2.65;;
17773;SDS011;9011;33.236;-97.118;2022-09-03T03:11:39;3.80;;;2.10;;
17773;SDS011;9011;33.236;-97.118;2022-09-03T03:14:14;2.25;;;2.05;;
17773;SDS011;9011;33.236;-97.118;2022-09-03T03:16:51;3.67;;;2.38;;
17773;SDS011;9011;33.236;-97.118;2022-09-03T03:19:35;4.30;;;1.95;;
17773;SDS011;9011;33.236;-97.118;2022-09-03T03:22:22;9.63;;;2.88;;
17773;SDS011;9011;33.236;-97.118;2022-09-03T03:24:57;27.15;;;3.65;;
17773;SDS011;9011;33.236;-97.118;2022-09-03T03:27:35;3.83;;;2.25;;
17773;SDS011;9011;33.236;-97.118;2022-09-03T03:32:56;3.95;;;2.63;;
17773;SDS011;9011;33.236;-97.118;2022-09-03T03:35:27;4.68;;;2.20;;
17773;SDS011;9011;33.236;-97.118;2022-09-03T03:38:07;4.07;;;2.30;;
17773;SDS011;9011;33.236;-97.118;2022-09-03T03:40:48;5.18;;;2.60;;
17773;SDS011;9011;33.236;-97.118;2022-09-03T03:43:24;2.50;;;2.30;;
17773;SDS011;9011;33.236;-97.118;2022-09-03T03:46:09;3.45;;;2.10;;
17773;SDS011;9011;33.236;-97.118;2022-09-03T03:48:39;2.88;;;2.30;;
17773;SDS011;9011;33.236;-97.118;2022-09-03T03:51:11;2.25;;;2.05;;
17773;SDS011;9011;33.236;-97.118;2022-09-03T03:53:40;2.95;;;2.00;;
17773;SDS011;9011;33.236;-97.118;2022-09-03T03:56:09;2.97;;;1.95;;
17773;SDS011;9011;33.236;-97.118;2022-09-03T03:58:39;3.17;;;2.20;;
17773;SDS011;9011;33.236;-97.118;2022-09-03T04:01:09;5.53;;;1.98;;
17773;SDS011;9011;33.236;-97.118;2022-09-03T04:03:40;3.72;;;2.40;;
17773;SDS011;9011;33.236;-97.118;2022-09-03T04:06:11;3.20;;;1.85;;
17773;SDS011;9011;33.236;-97.118;2022-09-03T04:08:45;3.40;;;2.05;;
17773;SDS011;9011;33.236;-97.118;2022-09-03T04:11:22;2.63;;;2.10;;
17773;SDS011;9011;33.236;-97.118;2022-09-03T04:13:56;4.57;;;2.42;;
17773;SDS011;9011;33.236;-97.118;2022-09-03T04:16:25;2.72;;;2.20;;
17773;SDS011;9011;33.236;-97.118;2022-09-03T04:18:56;3.35;;;2.17;;
17773;SDS011;9011;33.236;-97.118;2022-09-03T04:21:29;3.17;;;2.13;;
17773;SDS011;9011;33.236;-97.118;2022-09-03T04:23:58;8.27;;;2.65;;
17773;SDS011;9011;33.236;-97.118;2022-09-03T04:26:27;2.25;;;1.95;;
17773;SDS011;9011;33.236;-97.118;2022-09-03T04:28:56;2.97;;;2.30;;
17773;SDS011;9011;33.236;-97.118;2022-09-03T04:31:25;5.18;;;2.47;;
17773;SDS011;9011;33.236;-97.118;2022-09-03T04:33:58;3.28;;;2.20;;
17773;SDS011;9011;33.236;-97.118;2022-09-03T04:36:38;3.03;;;2.40;;
17773;SDS011;9011;33.236;-97.118;2022-09-03T04:39:09;5.32;;;2.45;;
17773;SDS011;9011;33.236;-97.118;2022-09-03T04:41:39;2.20;;;2.00;;
17773;SDS011;9011;33.236;-97.118;2022-09-03T04:44:10;4.13;;;2.33;;
17773;SDS011;9011;33.236;-97.118;2022-09-03T04:46:41;2.78;;;2.05;;
17773;SDS011;9011;33.236;-97.118;2022-09-03T04:49:14;3.03;;;2.20;;
17773;SDS011;9011;33.236;-97.118;2022-09-03T04:51:51;2.97;;;2.25;;
17773;SDS011;9011;33.236;-97.118;2022-09-03T04:54:22;2.55;;;2.33;;
17773;SDS011;9011;33.236;-97.118;2022-09-03T04:56:51;4.10;;;2.20;;
17773;SDS011;9011;33.236;-97.118;2022-09-03T04:59:23;3.65;;;2.28;;
17773;SDS011;9011;33.236;-97.118;2022-09-03T05:01:51;2.60;;;2.10;;
17773;SDS011;9011;33.236;-97.118;2022-09-03T05:04:25;4.15;;;2.28;;
17773;SDS011;9011;33.236;-97.118;2022-09-03T05:06:54;3.92;;;2.45;;
17773;SDS011;9011;33.236;-97.118;2022-09-03T05:09:23;3.38;;;2.42;;
17773;SDS011;9011;33.236;-97.118;2022-09-03T05:11:54;5.68;;;2.25;;
17773;SDS011;9011;33.236;-97.118;2022-09-03T05:14:30;5.13;;;2.47;;
17773;SDS011;9011;33.236;-97.118;2022-09-03T05:17:01;3.38;;;2.15;;
17773;SDS011;9011;33.236;-97.118;2022-09-03T05:19:31;2.92;;;2.53;;
17773;SDS011;9011;33.236;-97.118;2022-09-03T05:22:02;4.32;;;2.25;;
17773;SDS011;9011;33.236;-97.118;2022-09-03T05:24:33;4.85;;;2.63;;
17773;SDS011;9011;33.236;-97.118;2022-09-03T05:27:02;3.42;;;2.50;;
17773;SDS011;9011;33.236;-97.118;2022-09-03T05:29:32;5.07;;;2.35;;
17773;SDS011;9011;33.236;-97.118;2022-09-03T05:32:00;3.75;;;2.42;;
17773;SDS011;9011;33.236;-97.118;2022-09-03T05:34:31;3.00;;;2.22;;
17773;SDS011;9011;33.236;-97.118;2022-09-03T05:36:59;5.05;;;2.65;;
17773;SDS011;9011;33.236;-97.118;2022-09-03T05:39:28;4.53;;;2.83;;
17773;SDS011;9011;33.236;-97.118;2022-09-03T05:41:59;3.00;;;2.70;;
17773;SDS011;9011;33.236;-97.118;2022-09-03T05:44:28;2.63;;;2.40;;
17773;SDS011;9011;33.236;-97.118;2022-09-03T05:46:56;3.03;;;2.45;;
17773;SDS011;9011;33.236;-97.118;2022-09-03T05:49:25;5.45;;;2.70;;
17773;SDS011;9011;33.236;-97.118;2022-09-03T05:51:56;3.70;;;2.63;;
17773;SDS011;9011;33.236;-97.118;2022-09-03T05:54:25;4.53;;;2.90;;
17773;SDS011;9011;33.236;-97.118;2022-09-03T05:56:56;6.53;;;3.42;;
17773;SDS011;9011;33.236;-97.118;2022-09-03T05:59:25;3.38;;;2.33;;
17773;SDS011;9011;33.236;-97.118;2022-09-03T06:01:53;4.95;;;3.00;;
17773;SDS011;9011;33.236;-97.118;2022-09-03T06:04:22;5.85;;;2.60;;
17773;SDS011;9011;33.236;-97.118;2022-09-03T06:06:53;4.95;;;2.72;;
17773;SDS011;9011;33.236;-97.118;2022-09-03T06:09:30;4.53;;;2.72;;
17773;SDS011;9011;33.236;-97.118;2022-09-03T06:12:07;5.97;;;2.67;;
17773;SDS011;9011;33.236;-97.118;2022-09-03T06:14:35;5.30;;;2.97;;
17773;SDS011;9011;33.236;-97.118;2022-09-03T06:17:07;4.57;;;2.75;;
17773;SDS011;9011;33.236;-97.118;2022-09-03T06:19:39;5.15;;;2.42;;
17773;SDS011;9011;33.236;-97.118;2022-09-03T06:22:11;3.63;;;3.00;;
17773;SDS011;9011;33.236;-97.118;2022-09-03T06:24:40;3.80;;;2.90;;
17773;SDS011;9011;33.236;-97.118;2022-09-03T06:27:17;3.83;;;2.90;;
17773;SDS011;9011;33.236;-97.118;2022-09-03T06:30:07;3.70;;;2.33;;
17773;SDS011;9011;33.236;-97.118;2022-09-03T06:32:42;3.33;;;2.50;;
17773;SDS011;9011;33.236;-97.118;2022-09-03T06:35:15;4.93;;;2.83;;
17773;SDS011;9011;33.236;-97.118;2022-09-03T06:37:51;5.97;;;3.00;;
17773;SDS011;9011;33.236;-97.118;2022-09-03T06:40:21;6.13;;;3.05;;
17773;SDS011;9011;33.236;-97.118;2022-09-03T06:43:05;3.28;;;2.97;;
17773;SDS011;9011;33.236;-97.118;2022-09-03T06:45:43;6.68;;;3.10;;
17773;SDS011;9011;33.236;-97.118;2022-09-03T06:48:20;6.03;;;2.80;;
17773;SDS011;9011;33.236;-97.118;2022-09-03T06:50:55;5.35;;;3.10;;
17773;SDS011;9011;33.236;-97.118;2022-09-03T06:53:31;6.75;;;3.20;;
17773;SDS011;9011;33.236;-97.118;2022-09-03T06:56:01;3.00;;;2.70;;
17773;SDS011;9011;33.236;-97.118;2022-09-03T07:01:27;6.28;;;3.17;;
17773;SDS011;9011;33.236;-97.118;2022-09-03T07:04:04;3.03;;;2.72;;
17773;SDS011;9011;33.236;-97.118;2022-09-03T07:06:48;4.80;;;3.45;;
17773;SDS011;9011;33.236;-97.118;2022-09-03T07:09:24;6.47;;;2.92;;
17773;SDS011;9011;33.236;-97.118;2022-09-03T07:12:04;5.25;;;3.40;;
17773;SDS011;9011;33.236;-97.118;2022-09-03T07:14:48;4.28;;;3.10;;
17773;SDS011;9011;33.236;-97.118;2022-09-03T07:17:19;5.60;;;3.15;;
17773;SDS011;9011;33.236;-97.118;2022-09-03T07:19:51;4.35;;;2.90;;
17773;SDS011;9011;33.236;-97.118;2022-09-03T07:22:19;7.00;;;3.45;;
17773;SDS011;9011;33.236;-97.118;2022-09-03T07:24:52;5.25;;;3.55;;
17773;SDS011;9011;33.236;-97.118;2022-09-03T07:27:24;4.20;;;3.10;;
17773;SDS011;9011;33.236;-97.118;2022-09-03T07:29:53;6.68;;;3.50;;
17773;SDS011;9011;33.236;-97.118;2022-09-03T07:32:22;5.93;;;3.30;;
17773;SDS011;9011;33.236;-97.118;2022-09-03T07:34:57;5.40;;;3.08;;
17773;SDS011;9011;33.236;-97.118;2022-09-03T07:37:28;5.20;;;3.33;;
17773;SDS011;9011;33.236;-97.118;2022-09-03T07:40:04;9.98;;;4.28;;
17773;SDS011;9011;33.236;-97.118;2022-09-03T07:42:33;5.22;;;3.45;;
17773;SDS011;9011;33.236;-97.118;2022-09-03T07:45:03;5.78;;;2.97;;
17773;SDS011;9011;33.236;-97.118;2022-09-03T07:47:44;5.75;;;3.13;;
17773;SDS011;9011;33.236;-97.118;2022-09-03T07:50:14;3.20;;;2.90;;
17773;SDS011;9011;33.236;-97.118;2022-09-03T07:52:44;4.57;;;2.92;;
17773;SDS011;9011;33.236;-97.118;2022-09-03T07:55:15;5.55;;;3.28;;
17773;SDS011;9011;33.236;-97.118;2022-09-03T07:57:47;7.70;;;3.30;;
17773;SDS011;9011;33.236;-97.118;2022-09-03T08:00:18;4.68;;;2.97;;
17773;SDS011;9011;33.236;-97.118;2022-09-03T08:02:50;5.80;;;2.95;;
17773;SDS011;9011;33.236;-97.118;2022-09-03T08:05:26;4.65;;;2.95;;
17773;SDS011;9011;33.236;-97.118;2022-09-03T08:08:01;3.55;;;3.20;;
17773;SDS011;9011;33.236;-97.118;2022-09-03T08:10:34;7.88;;;3.92;;
17773;SDS011;9011;33.236;-97.118;2022-09-03T08:13:04;3.80;;;3.05;;
17773;SDS011;9011;33.236;-97.118;2022-09-03T08:15:35;6.13;;;3.00;;
17773;SDS011;9011;33.236;-97.118;2022-09-03T08:18:07;6.93;;;3.08;;
17773;SDS011;9011;33.236;-97.118;2022-09-03T08:20:36;3.90;;;2.83;;
17773;SDS011;9011;33.236;-97.118;2022-09-03T08:23:07;4.82;;;2.80;;
17773;SDS011;9011;33.236;-97.118;2022-09-03T08:25:40;4.47;;;3.13;;
17773;SDS011;9011;33.236;-97.118;2022-09-03T08:28:11;9.55;;;3.38;;
17773;SDS011;9011;33.236;-97.118;2022-09-03T08:30:40;5.25;;;3.25;;
17773;SDS011;9011;33.236;-97.118;2022-09-03T08:33:08;5.05;;;3.13;;
17773;SDS011;9011;33.236;-97.118;2022-09-03T08:35:39;3.22;;;2.92;;
17773;SDS011;9011;33.236;-97.118;2022-09-03T08:38:12;5.45;;;3.00;;
17773;SDS011;9011;33.236;-97.118;2022-09-03T08:40:47;4.22;;;3.00;;
17773;SDS011;9011;33.236;-97.118;2022-09-03T08:43:20;4.32;;;3.05;;
17773;SDS011;9011;33.236;-97.118;2022-09-03T08:45:49;3.75;;;3.20;;
17773;SDS011;9011;33.236;-97.118;2022-09-03T08:48:19;5.40;;;2.85;;
17773;SDS011;9011;33.236;-97.118;2022-09-03T08:50:58;4.63;;;3.08;;
17773;SDS011;9011;33.236;-97.118;2022-09-03T08:53:35;5.45;;;2.95;;
17773;SDS011;9011;33.236;-97.118;2022-09-03T08:56:20;4.55;;;2.75;;
17773;SDS011;9011;33.236;-97.118;2022-09-03T08:59:00;6.53;;;3.50;;
17773;SDS011;9011;33.236;-97.118;2022-09-03T09:01:51;4.80;;;2.78;;
17773;SDS011;9011;33.236;-97.118;2022-09-03T09:04:38;3.45;;;2.88;;
17773;SDS011;9011;33.236;-97.118;2022-09-03T09:07:24;6.68;;;3.25;;
17773;SDS011;9011;33.236;-97.118;2022-09-03T09:10:29;4.25;;;3.00;;
17773;SDS011;9011;33.236;-97.118;2022-09-03T09:13:30;4.93;;;3.47;;
17773;SDS011;9011;33.236;-97.118;2022-09-03T09:16:29;3.22;;;2.92;;
17773;SDS011;9011;33.236;-97.118;2022-09-03T09:19:23;5.40;;;3.47;;
17773;SDS011;9011;33.236;-97.118;2022-09-03T09:22:23;4.47;;;3.40;;
17773;SDS011;9011;33.236;-97.118;2022-09-03T09:25:19;4.05;;;3.22;;
17773;SDS011;9011;33.236;-97.118;2022-09-03T09:28:10;6.03;;;3.17;;
17773;SDS011;9011;33.236;-97.118;2022-09-03T09:30:54;4.97;;;3.00;;
17773;SDS011;9011;33.236;-97.118;2022-09-03T09:33:29;4.28;;;3.20;;
17773;SDS011;9011;33.236;-97.118;2022-09-03T09:36:13;5.75;;;3.85;;
17773;SDS011;9011;33.236;-97.118;2022-09-03T09:38:44;6.97;;;3.60;;
17773;SDS011;9011;33.236;-97.118;2022-09-03T09:41:31;6.60;;;4.00;;
17773;SDS011;9011;33.236;-97.118;2022-09-03T09:44:25;5.40;;;3.47;;
17773;SDS011;9011;33.236;-97.118;2022-09-03T09:47:32;7.43;;;3.20;;
17773;SDS011;9011;33.236;-97.118;2022-09-03T09:50:24;8.82;;;3.50;;
17773;SDS011;9011;33.236;-97.118;2022-09-03T09:53:16;3.58;;;3.00;;
17773;SDS011;9011;33.236;-97.118;2022-09-03T09:56:10;5.47;;;2.90;;
17773;SDS011;9011;33.236;-97.118;2022-09-03T10:02:11;7.70;;;3.10;;
17773;SDS011;9011;33.236;-97.118;2022-09-03T10:08:00;3.92;;;3.13;;
17773;SDS011;9011;33.236;-97.118;2022-09-03T10:14:22;4.13;;;3.35;;
17773;SDS011;9011;33.236;-97.118;2022-09-03T10:20:43;4.95;;;3.30;;
17773;SDS011;9011;33.236;-97.118;2022-09-03T10:24:18;4.70;;;3.30;;
17773;SDS011;9011;33.236;-97.118;2022-09-03T10:27:11;3.42;;;3.08;;
17773;SDS011;9011;33.236;-97.118;2022-09-03T10:46:46;5.63;;;3.67;;
17773;SDS011;9011;33.236;-97.118;2022-09-03T10:53:25;7.60;;;3.67;;
17773;SDS011;9011;33.236;-97.118;2022-09-03T11:07:46;5.95;;;3.40;;
17773;SDS011;9011;33.236;-97.118;2022-09-03T11:18:03;9.00;;;3.80;;
17773;SDS011;9011;33.236;-97.118;2022-09-03T12:43:28;23.88;;;17.67;;
17773;SDS011;9011;33.236;-97.118;2022-09-03T12:51:22;15.43;;;11.02;;
17773;SDS011;9011;33.236;-97.118;2022-09-03T13:00:47;12.77;;;11.15;;
17773;SDS011;9011;33.236;-97.118;2022-09-03T13:03:26;14.45;;;10.95;;
17773;SDS011;9011;33.236;-97.118;2022-09-03T13:06:22;8.73;;;7.82;;
17773;SDS011;9011;33.236;-97.118;2022-09-03T13:12:07;9.60;;;8.57;;
17773;SDS011;9011;33.236;-97.118;2022-09-03T13:14:48;9.25;;;7.68;;
17773;SDS011;9011;33.236;-97.118;2022-09-03T13:17:24;6.85;;;5.95;;
17773;SDS011;9011;33.236;-97.118;2022-09-03T13:20:13;6.55;;;5.82;;
17773;SDS011;9011;33.236;-97.118;2022-09-03T13:22:56;9.07;;;6.95;;
17773;SDS011;9011;33.236;-97.118;2022-09-03T13:25:45;7.05;;;6.32;;
17773;SDS011;9011;33.236;-97.118;2022-09-03T13:28:22;9.05;;;7.75;;
17773;SDS011;9011;33.236;-97.118;2022-09-03T13:31:00;6.95;;;6.25;;
17773;SDS011;9011;33.236;-97.118;2022-09-03T13:33:39;7.00;;;5.70;;
17773;SDS011;9011;33.236;-97.118;2022-09-03T13:36:13;5.53;;;5.03;;
17773;SDS011;9011;33.236;-97.118;2022-09-03T13:38:45;5.95;;;4.60;;
17773;SDS011;9011;33.236;-97.118;2022-09-03T13:41:23;5.95;;;5.35;;
17773;SDS011;9011;33.236;-97.118;2022-09-03T13:44:02;4.90;;;4.47;;
17773;SDS011;9011;33.236;-97.118;2022-09-03T13:46:39;4.70;;;4.30;;
17773;SDS011;9011;33.236;-97.118;2022-09-03T13:49:26;4.78;;;3.88;;
17773;SDS011;9011;33.236;-97.118;2022-09-03T13:52:18;6.32;;;4.38;;
17773;SDS011;9011;33.236;-97.118;2022-09-03T13:54:55;5.72;;;4.40;;
17773;SDS011;9011;33.236;-97.118;2022-09-03T13:57:31;5.00;;;4.00;;
17773;SDS011;9011;33.236;-97.118;2022-09-03T14:00:05;5.20;;;3.88;;
17773;SDS011;9011;33.236;-97.118;2022-09-03T14:02:41;5.97;;;4.43;;
17773;SDS011;9011;33.236;-97.118;2022-09-03T14:05:22;5.47;;;4.20;;
17773;SDS011;9011;33.236;-97.118;2022-09-03T14:08:08;7.15;;;5.03;;
17773;SDS011;9011;33.236;-97.118;2022-09-03T14:10:58;7.40;;;4.60;;
17773;SDS011;9011;33.236;-97.118;2022-09-03T14:13:49;4.53;;;3.95;;
17773;SDS011;9011;33.236;-97.118;2022-09-03T14:16:33;3.92;;;3.53;;
17773;SDS011;9011;33.236;-97.118;2022-09-03T14:19:15;4.35;;;3.65;;
17773;SDS011;9011;33.236;-97.118;2022-09-03T14:21:52;4.35;;;3.95;;
17773;SDS011;9011;33.236;-97.118;2022-09-03T14:24:25;4.57;;;3.90;;
17773;SDS011;9011;33.236;-97.118;2022-09-03T14:26:58;5.68;;;3.80;;
17773;SDS011;9011;33.236;-97.118;2022-09-03T14:29:29;7.13;;;3.75;;
17773;SDS011;9011;33.236;-97.118;2022-09-03T14:32:03;4.22;;;3.83;;
17773;SDS011;9011;33.236;-97.118;2022-09-03T14:34:59;4.40;;;4.00;;
17773;SDS011;9011;33.236;-97.118;2022-09-03T14:37:57;4.38;;;3.92;;
17773;SDS011;9011;33.236;-97.118;2022-09-03T14:41:04;4.40;;;4.00;;
17773;SDS011;9011;33.236;-97.118;2022-09-03T14:43:51;6.15;;;4.63;;
17773;SDS011;9011;33.236;-97.118;2022-09-03T14:46:46;4.90;;;4.50;;
17773;SDS011;9011;33.236;-97.118;2022-09-03T14:49:37;4.38;;;3.88;;
17773;SDS011;9011;33.236;-97.118;2022-09-03T14:58:34;4.88;;;4.28;;
17773;SDS011;9011;33.236;-97.118;2022-09-03T15:01:12;4.72;;;4.32;;
17773;SDS011;9011;33.236;-97.118;2022-09-03T15:03:48;5.65;;;4.28;;
17773;SDS011;9011;33.236;-97.118;2022-09-03T15:06:47;4.57;;;4.05;;
17773;SDS011;9011;33.236;-97.118;2022-09-03T15:09:32;4.25;;;3.85;;
17773;SDS011;9011;33.236;-97.118;2022-09-03T15:12:09;5.15;;;4.10;;
17773;SDS011;9011;33.236;-97.118;2022-09-03T15:14:49;5.03;;;4.50;;
17773;SDS011;9011;33.236;-97.118;2022-09-03T15:17:27;9.75;;;5.22;;
17773;SDS011;9011;33.236;-97.118;2022-09-03T15:20:10;4.85;;;4.10;;
17773;SDS011;9011;33.236;-97.118;2022-09-03T15:26:07;4.43;;;4.03;;
17773;SDS011;9011;33.236;-97.118;2022-09-03T15:29:00;4.70;;;4.30;;
17773;SDS011;9011;33.236;-97.118;2022-09-03T15:35:03;4.50;;;4.10;;
17773;SDS011;9011;33.236;-97.118;2022-09-03T15:37:35;4.43;;;4.03;;
17773;SDS011;9011;33.236;-97.118;2022-09-03T15:40:19;4.43;;;4.03;;
17773;SDS011;9011;33.236;-97.118;2022-09-03T15:42:55;4.75;;;4.05;;
17773;SDS011;9011;33.236;-97.118;2022-09-03T15:46:09;4.25;;;3.95;;
17773;SDS011;9011;33.236;-97.118;2022-09-03T15:48:57;4.28;;;3.88;;
17773;SDS011;9011;33.236;-97.118;2022-09-03T15:51:29;4.88;;;3.63;;
17773;SDS011;9011;33.236;-97.118;2022-09-03T15:54:01;4.45;;;4.05;;
17773;SDS011;9011;33.236;-97.118;2022-09-03T15:56:38;4.80;;;3.80;;
17773;SDS011;9011;33.236;-97.118;2022-09-03T15:59:17;4.60;;;4.20;;
17773;SDS011;9011;33.236;-97.118;2022-09-03T16:01:53;4.97;;;3.88;;
17773;SDS011;9011;33.236;-97.118;2022-09-03T16:04:30;4.82;;;3.80;;
17773;SDS011;9011;33.236;-97.118;2022-09-03T16:07:09;4.05;;;3.75;;
17773;SDS011;9011;33.236;-97.118;2022-09-03T16:09:50;4.25;;;3.85;;
17773;SDS011;9011;33.236;-97.118;2022-09-03T16:12:28;3.88;;;3.58;;
17773;SDS011;9011;33.236;-97.118;2022-09-03T16:15:02;4.20;;;3.90;;
17773;SDS011;9011;33.236;-97.118;2022-09-03T16:17:48;3.85;;;3.50;;
17773;SDS011;9011;33.236;-97.118;2022-09-03T16:20:22;3.75;;;3.45;;
17773;SDS011;9011;33.236;-97.118;2022-09-03T16:23:00;3.90;;;3.47;;
17773;SDS011;9011;33.236;-97.118;2022-09-03T16:25:34;3.45;;;3.15;;
17773;SDS011;9011;33.236;-97.118;2022-09-03T16:28:14;3.80;;;3.28;;
17773;SDS011;9011;33.236;-97.118;2022-09-03T16:31:03;3.60;;;3.30;;
17773;SDS011;9011;33.236;-97.118;2022-09-03T16:33:42;3.50;;;2.90;;
17773;SDS011;9011;33.236;-97.118;2022-09-03T16:36:22;3.50;;;2.97;;
17773;SDS011;9011;33.236;-97.118;2022-09-03T16:38:59;3.55;;;3.25;;
17773;SDS011;9011;33.236;-97.118;2022-09-03T16:41:33;3.45;;;3.15;;
17773;SDS011;9011;33.236;-97.118;2022-09-03T16:44:12;3.90;;;3.60;;
17773;SDS011;9011;33.236;-97.118;2022-09-03T16:46:49;3.75;;;3.00;;
17773;SDS011;9011;33.236;-97.118;2022-09-03T16:49:31;3.17;;;2.88;;
17773;SDS011;9011;33.236;-97.118;2022-09-03T16:52:23;3.60;;;3.35;;
17773;SDS011;9011;33.236;-97.118;2022-09-03T16:55:02;3.45;;;3.15;;
17773;SDS011;9011;33.236;-97.118;2022-09-03T16:57:43;3.42;;;2.50;;
17773;SDS011;9011;33.236;-97.118;2022-09-03T17:00:25;3.10;;;2.80;;
17773;SDS011;9011;33.236;-97.118;2022-09-03T17:03:06;4.15;;;2.70;;
17773;SDS011;9011;33.236;-97.118;2022-09-03T17:06:11;3.22;;;2.80;;
17773;SDS011;9011;33.236;-97.118;2022-09-03T17:09:01;3.40;;;3.10;;
17773;SDS011;9011;33.236;-97.118;2022-09-03T17:11:42;3.55;;;2.63;;
17773;SDS011;9011;33.236;-97.118;2022-09-03T17:14:32;2.80;;;2.60;;
17773;SDS011;9011;33.236;-97.118;2022-09-03T17:17:15;2.55;;;2.33;;
17773;SDS011;9011;33.236;-97.118;2022-09-03T17:19:51;3.63;;;2.63;;
17773;SDS011;9011;33.236;-97.118;2022-09-03T17:22:30;2.65;;;2.45;;
17773;SDS011;9011;33.236;-97.118;2022-09-03T17:25:07;2.38;;;2.17;;
17773;SDS011;9011;33.236;-97.118;2022-09-03T17:27:48;2.72;;;2.53;;
17773;SDS011;9011;33.236;-97.118;2022-09-03T17:30:27;2.40;;;2.30;;
17773;SDS011;9011;33.236;-97.118;2022-09-03T17:33:14;2.60;;;2.40;;
17773;SDS011;9011;33.236;-97.118;2022-09-03T17:36:07;4.78;;;2.42;;
17773;SDS011;9011;33.236;-97.118;2022-09-03T17:38:51;2.30;;;2.10;;
17773;SDS011;9011;33.236;-97.118;2022-09-03T17:41:44;2.67;;;2.47;;
17773;SDS011;9011;33.236;-97.118;2022-09-03T17:44:20;4.57;;;2.60;;
17773;SDS011;9011;33.236;-97.118;2022-09-03T17:46:59;2.70;;;2.28;;
17773;SDS011;9011;33.236;-97.118;2022-09-03T17:49:41;4.88;;;2.60;;
17773;SDS011;9011;33.236;-97.118;2022-09-03T17:52:18;2.90;;;2.70;;
17773;SDS011;9011;33.236;-97.118;2022-09-03T17:54:54;5.30;;;2.58;;
17773;SDS011;9011;33.236;-97.118;2022-09-03T17:57:26;2.60;;;2.40;;
17773;SDS011;9011;33.236;-97.118;2022-09-03T17:59:58;2.20;;;2.10;;
17773;SDS011;9011;33.236;-97.118;2022-09-03T18:02:31;2.38;;;2.20;;
17773;SDS011;9011;33.236;-97.118;2022-09-03T18:05:05;2.55;;;2.35;;
17773;SDS011;9011;33.236;-97.118;2022-09-03T18:07:43;3.03;;;2.40;;
17773;SDS011;9011;33.236;-97.118;2022-09-03T18:10:17;3.55;;;2.20;;
17773;SDS011;9011;33.236;-97.118;2022-09-03T18:12:53;2.53;;;2.33;;
17773;SDS011;9011;33.236;-97.118;2022-09-03T18:15:31;2.58;;;2.33;;
17773;SDS011;9011;33.236;-97.118;2022-09-03T18:18:07;2.80;;;2.60;;
17773;SDS011;9011;33.236;-97.118;2022-09-03T18:20:44;2.80;;;2.60;;
17773;SDS011;9011;33.236;-97.118;2022-09-03T18:23:45;2.70;;;2.50;;
17773;SDS011;9011;33.236;-97.118;2022-09-03T18:26:39;3.38;;;2.67;;
17773;SDS011;9011;33.236;-97.118;2022-09-03T18:29:31;3.15;;;2.92;;